Northern Mariner — WDD2558 — position and weather

sailwx.info

Track history (hours):
 
Tides and Currents Weather Stations Pressure Air Temp Water Temp Dewpoint Dewpoint Depression Visibility Wind Speed Wind Dir Waves Ship Positions

Northern Mariner

Owner: LMW Investmrnts Inc., San Diego, CA. More information available from US FCC via Universal Licensing System and Coast Guard Vessel Documentation Center.

Last reported at 2018-Jun-25 15:21 UTC. Time now 2018-Jun-25 15:51 UTC.
Position N 32°40' W 117°07'.

Length 22 m; draft 3 m.

Type: Towing. MMSI: 367116840.

Date/timePositionNaut miles runAvg speedWind from/ knotsBaromVisibWave heightAir tempDewpointWater temp
2018-Jun-25 15:21N 32°40' W 117°07'0 0.0
2018-Jun-25 14:11N 32°40' W 117°07'0 0.0
2018-Jun-25 13:59N 32°40' W 117°07'0 0.0
2018-Jun-25 13:23N 32°40' W 117°07'0 0.0
2018-Jun-25 12:53N 32°40' W 117°07'  
2018-Jun-21 09:14N 32°39' W 117°22'1 4.2
2018-Jun-21 08:59N 32°40' W 117°23'2 4.2
2018-Jun-21 08:30N 32°41' W 117°25'2 4.1
2018-Jun-21 08:00N 32°41' W 117°27'2 4.3
2018-Jun-21 07:30N 32°42' W 117°30'2 4.9
2018-Jun-21 07:00N 32°43' W 117°33'2 5.0
2018-Jun-21 06:30N 32°43' W 117°35'3 5.2
2018-Jun-21 06:00N 32°44' W 117°38'3 5.2
2018-Jun-21 05:30N 32°45' W 117°41'2 0.1
2018-Jun-20 04:28N 32°44' W 117°44'3 5.4
2018-Jun-20 03:59N 32°43' W 117°41'7 5.5
2018-Jun-20 02:44N 32°41' W 117°33'1 5.4
2018-Jun-20 02:30N 32°41' W 117°32'3 5.4
2018-Jun-20 02:00N 32°40' W 117°28'  
Track history (hours):
 
Tides and Currents Weather Stations Pressure Air Temp Water Temp Dewpoint Dewpoint Depression Visibility Wind Speed Wind Dir Waves Ship Positions

Northern Mariner

Owner: LMW Investmrnts Inc., San Diego, CA. More information available from US FCC via Universal Licensing System and Coast Guard Vessel Documentation Center.

Last reported at 2018-Jun-25 15:21 UTC. Time now 2018-Jun-25 15:51 UTC.
Position N 32°40' W 117°07'.

Length 22 m; draft 3 m.

Type: Towing. MMSI: 367116840.

Date/timePositionNaut miles runAvg speedWind from/ knotsBaromVisibWave heightAir tempDewpointWater temp
2018-Jun-25 15:21N 32°40' W 117°07'0 0.0
2018-Jun-25 14:11N 32°40' W 117°07'0 0.0
2018-Jun-25 13:59N 32°40' W 117°07'0 0.0
2018-Jun-25 13:23N 32°40' W 117°07'0 0.0
2018-Jun-25 12:53N 32°40' W 117°07'  
2018-Jun-21 09:14N 32°39' W 117°22'1 4.2
2018-Jun-21 08:59N 32°40' W 117°23'2 4.2
2018-Jun-21 08:30N 32°41' W 117°25'2 4.1
2018-Jun-21 08:00N 32°41' W 117°27'2 4.3
2018-Jun-21 07:30N 32°42' W 117°30'2 4.9
2018-Jun-21 07:00N 32°43' W 117°33'2 5.0
2018-Jun-21 06:30N 32°43' W 117°35'3 5.2
2018-Jun-21 06:00N 32°44' W 117°38'3 5.2
2018-Jun-21 05:30N 32°45' W 117°41'2 0.1
2018-Jun-20 04:28N 32°44' W 117°44'3 5.4
2018-Jun-20 03:59N 32°43' W 117°41'7 5.5
2018-Jun-20 02:44N 32°41' W 117°33'1 5.4
2018-Jun-20 02:30N 32°41' W 117°32'3 5.4
2018-Jun-20 02:00N 32°40' W 117°28'  

Dump ship's entire track history